createdAt,value
2022-08-25T00:02:02.977Z,25.30
2022-08-25T00:04:30.382Z,25.30
2022-08-25T00:07:02.195Z,25.20
2022-08-25T00:09:31.592Z,25.20
2022-08-25T00:11:59.193Z,25.20
2022-08-25T00:14:35.130Z,25.10
2022-08-25T00:17:03.098Z,25.10
2022-08-25T00:19:32.712Z,25.10
2022-08-25T00:22:00.903Z,25.00
2022-08-25T00:24:28.566Z,25.00
2022-08-25T00:26:57.852Z,25.00
2022-08-25T00:29:26.319Z,24.90
2022-08-25T00:31:54.907Z,24.90
2022-08-25T00:34:26.212Z,24.80
2022-08-25T00:36:54.091Z,24.80
2022-08-25T00:39:22.778Z,24.80
2022-08-25T00:41:52.807Z,24.80
2022-08-25T00:44:20.639Z,24.70
2022-08-25T00:46:53.132Z,24.70
2022-08-25T00:49:33.883Z,24.70
2022-08-25T00:52:03.545Z,24.70
2022-08-25T00:54:43.706Z,24.70
2022-08-25T00:57:13.502Z,24.60
2022-08-25T00:59:41.199Z,24.60
2022-08-25T01:02:13.547Z,24.60
2022-08-25T01:04:48.686Z,24.60
2022-08-25T01:07:18.849Z,24.50
2022-08-25T01:09:47.647Z,24.50
2022-08-25T01:12:15.130Z,24.50
2022-08-25T01:14:44.576Z,24.40
2022-08-25T01:17:11.542Z,24.40
2022-08-25T01:19:38.261Z,24.40
2022-08-25T01:22:05.729Z,24.30
2022-08-25T01:24:40.939Z,24.30
2022-08-25T01:27:08.378Z,24.30
2022-08-25T01:29:36.017Z,24.20
2022-08-25T01:32:06.691Z,24.20
2022-08-25T01:34:37.693Z,24.20
2022-08-25T01:37:05.124Z,24.10
2022-08-25T01:39:39.005Z,24.10
2022-08-25T01:42:11.634Z,24.10
2022-08-25T01:44:42.585Z,24.10
2022-08-25T01:47:09.923Z,24.00
2022-08-25T01:49:37.349Z,24.00
2022-08-25T01:52:28.881Z,24.00
2022-08-25T01:54:55.633Z,23.90
2022-08-25T01:57:22.371Z,23.90
2022-08-25T01:59:49.235Z,23.90
2022-08-25T02:02:18.359Z,23.80
2022-08-25T02:04:45.574Z,23.80
2022-08-25T02:07:12.255Z,23.80
2022-08-25T02:09:40.668Z,23.80
2022-08-25T02:12:09.381Z,23.70
2022-08-25T02:14:37.505Z,23.70
2022-08-25T02:17:05.684Z,23.70
2022-08-25T02:19:32.596Z,23.60
2022-08-25T02:22:00.148Z,23.60
2022-08-25T02:24:27.152Z,23.60
2022-08-25T02:26:53.877Z,23.60
2022-08-25T02:29:20.735Z,23.60
2022-08-25T02:31:47.471Z,23.50
2022-08-25T02:34:15.278Z,23.50
2022-08-25T02:36:43.389Z,23.50
2022-08-25T02:39:11.056Z,23.50
2022-08-25T02:41:38.904Z,23.40
2022-08-25T02:44:07.611Z,23.40
2022-08-25T02:46:35.383Z,23.40
2022-08-25T02:49:02.652Z,23.40
2022-08-25T02:51:30.201Z,23.30
2022-08-25T02:53:59.428Z,23.30
2022-08-25T02:56:26.900Z,23.30
2022-08-25T02:58:54.090Z,23.30
2022-08-25T03:01:22.229Z,23.20
2022-08-25T03:03:56.144Z,23.20
2022-08-25T03:06:24.331Z,23.20
2022-08-25T03:08:53.116Z,23.20
2022-08-25T03:11:20.752Z,23.10
2022-08-25T03:13:51.093Z,23.10
2022-08-25T03:16:18.963Z,23.10
2022-08-25T03:18:46.347Z,23.00
2022-08-25T03:21:13.346Z,23.00
2022-08-25T03:23:42.844Z,23.00
2022-08-25T03:26:28.296Z,22.90
2022-08-25T03:28:58.067Z,22.90
2022-08-25T03:31:27.680Z,22.90
2022-08-25T03:33:55.289Z,22.90
2022-08-25T03:36:22.146Z,22.80
2022-08-25T03:38:49.007Z,22.80
2022-08-25T03:41:29.182Z,22.80
2022-08-25T03:43:57.004Z,22.80
2022-08-25T03:46:32.409Z,22.80
2022-08-25T03:49:02.249Z,22.70
2022-08-25T03:51:33.661Z,22.70
2022-08-25T03:54:01.460Z,22.70
2022-08-25T03:56:28.792Z,22.60
2022-08-25T03:58:55.932Z,22.60
2022-08-25T04:01:23.773Z,22.50
2022-08-25T04:03:50.770Z,22.50
2022-08-25T04:06:19.481Z,22.50
2022-08-25T04:08:46.403Z,22.50
2022-08-25T04:11:16.193Z,22.50
2022-08-25T04:13:43.377Z,22.50
2022-08-25T04:16:12.887Z,22.50
2022-08-25T04:18:40.541Z,22.40
2022-08-25T04:21:09.638Z,22.40
2022-08-25T04:23:41.020Z,22.40
2022-08-25T04:26:14.152Z,22.40
2022-08-25T04:28:41.415Z,22.40
2022-08-25T04:31:09.568Z,22.40
2022-08-25T04:33:38.153Z,22.30
2022-08-25T04:36:11.418Z,22.40
2022-08-25T04:38:40.567Z,22.30
2022-08-25T04:41:08.649Z,22.30
2022-08-25T04:43:36.532Z,22.30
2022-08-25T04:46:12.368Z,22.30
2022-08-25T04:48:39.989Z,22.30
2022-08-25T04:51:08.034Z,22.20
2022-08-25T04:53:35.385Z,22.20
2022-08-25T04:56:04.042Z,22.20
2022-08-25T04:58:30.933Z,22.20
2022-08-25T05:01:09.308Z,22.20
2022-08-25T05:03:36.331Z,22.20
2022-08-25T05:06:04.681Z,22.20
2022-08-25T05:08:32.337Z,22.20
2022-08-25T05:10:59.900Z,22.20
2022-08-25T05:13:29.690Z,22.20
2022-08-25T05:16:00.284Z,22.20
2022-08-25T05:18:29.249Z,22.30
2022-08-25T05:20:56.940Z,22.20
2022-08-25T05:23:24.763Z,22.20
2022-08-25T05:25:52.757Z,22.20
2022-08-25T05:28:20.456Z,22.20
2022-08-25T05:30:49.443Z,22.20
2022-08-25T05:33:17.196Z,22.30
2022-08-25T05:35:44.104Z,22.30
2022-08-25T05:38:15.619Z,22.30
2022-08-25T05:40:42.702Z,22.30
2022-08-25T05:43:10.303Z,22.30
2022-08-25T05:45:37.208Z,22.30
2022-08-25T05:48:04.185Z,22.40
2022-08-25T05:50:31.050Z,22.40
2022-08-25T05:52:57.865Z,22.40
2022-08-25T05:55:24.634Z,22.40
2022-08-25T05:57:51.468Z,22.40
2022-08-25T06:00:18.822Z,22.40
2022-08-25T06:02:46.899Z,22.50
2022-08-25T06:05:19.331Z,22.50
2022-08-25T06:07:46.878Z,22.50
2022-08-25T06:10:14.613Z,22.50
2022-08-25T06:12:44.815Z,22.50
2022-08-25T06:15:14.876Z,22.50
2022-08-25T06:17:43.007Z,22.60
2022-08-25T06:20:16.102Z,22.60
2022-08-25T06:22:43.627Z,22.60
2022-08-25T06:25:13.193Z,22.60
2022-08-25T06:27:40.655Z,22.70
2022-08-25T06:30:10.749Z,22.70
2022-08-25T06:32:39.969Z,22.70
2022-08-25T06:35:10.470Z,22.80
2022-08-25T06:37:38.214Z,22.80
2022-08-25T06:40:07.372Z,22.90
2022-08-25T06:42:34.928Z,22.90
2022-08-25T06:45:02.311Z,23.00
2022-08-25T06:47:29.063Z,23.00
2022-08-25T06:49:55.958Z,23.10
2022-08-25T06:52:22.841Z,23.10
2022-08-25T06:54:56.350Z,23.20
2022-08-25T06:57:23.174Z,23.20
2022-08-25T06:59:49.964Z,23.20
2022-08-25T07:02:22.249Z,23.30
2022-08-25T07:04:49.590Z,23.30
2022-08-25T07:07:16.298Z,23.40
2022-08-25T07:09:43.034Z,23.40
2022-08-25T07:12:10.230Z,23.40
2022-08-25T07:14:37.155Z,23.50
2022-08-25T07:17:12.025Z,23.60
2022-08-25T07:19:39.394Z,23.50
2022-08-25T07:22:07.747Z,23.60
2022-08-25T07:24:36.334Z,23.70
2022-08-25T07:27:03.330Z,23.70
2022-08-25T07:29:33.241Z,23.70
2022-08-25T07:32:04.360Z,23.80
2022-08-25T07:34:52.619Z,23.80
2022-08-25T07:37:38.348Z,23.90
2022-08-25T07:40:10.165Z,23.90
2022-08-25T07:42:37.832Z,24.00
2022-08-25T07:45:07.347Z,24.10
2022-08-25T07:47:34.802Z,24.10
2022-08-25T07:50:01.859Z,24.20
2022-08-25T07:52:28.842Z,24.20
2022-08-25T07:54:56.859Z,24.30
2022-08-25T07:57:26.534Z,24.40
2022-08-25T07:59:53.381Z,24.40
2022-08-25T08:02:20.207Z,24.50
2022-08-25T08:04:49.910Z,24.50
2022-08-25T08:07:25.725Z,24.50
2022-08-25T08:10:29.691Z,24.60
2022-08-25T08:12:47.739Z,24.60
2022-08-25T08:15:14.625Z,24.60
2022-08-25T08:17:41.804Z,24.70
2022-08-25T08:20:09.995Z,24.80
2022-08-25T08:22:42.205Z,24.80
2022-08-25T08:25:11.075Z,24.90
2022-08-25T08:27:38.031Z,24.90
2022-08-25T08:30:06.575Z,25.00
2022-08-25T08:33:05.897Z,25.10
2022-08-25T08:35:20.085Z,25.10
2022-08-25T08:37:46.808Z,25.10
2022-08-25T08:40:16.429Z,25.20
2022-08-25T08:42:52.771Z,25.30
2022-08-25T08:45:44.274Z,25.30
2022-08-25T08:48:11.074Z,25.30
2022-08-25T08:50:43.153Z,25.40
2022-08-25T08:53:49.075Z,25.50
2022-08-25T08:56:30.732Z,25.50
2022-08-25T08:59:10.110Z,25.60
2022-08-25T09:01:53.973Z,25.70
2022-08-25T09:04:39.095Z,25.70
2022-08-25T09:07:16.620Z,25.80
2022-08-25T09:09:45.048Z,25.90
2022-08-25T09:12:31.631Z,25.90
2022-08-25T09:15:18.944Z,26.00
2022-08-25T09:18:17.228Z,26.10
2022-08-25T09:20:58.239Z,26.20
2022-08-25T09:23:34.572Z,26.30
2022-08-25T09:26:10.441Z,26.40
2022-08-25T09:28:53.285Z,26.40
2022-08-25T09:31:29.729Z,26.50
2022-08-25T09:34:00.021Z,26.50
2022-08-25T09:36:26.983Z,26.60
2022-08-25T09:38:56.767Z,26.60
2022-08-25T09:41:44.546Z,26.70
2022-08-25T09:44:41.625Z,26.80
2022-08-25T09:47:18.391Z,26.80
2022-08-25T09:50:01.694Z,26.90
2022-08-25T09:52:41.459Z,26.90
2022-08-25T09:55:08.510Z,27.00
2022-08-25T09:57:43.905Z,27.10
2022-08-25T10:00:15.994Z,27.10
2022-08-25T10:02:45.392Z,27.20
2022-08-25T10:05:23.242Z,27.30
2022-08-25T10:08:02.211Z,27.40
2022-08-25T10:10:42.003Z,27.50
2022-08-25T10:13:22.954Z,27.50
2022-08-25T10:16:24.594Z,27.60
2022-08-25T10:19:15.025Z,27.70
2022-08-25T10:21:43.683Z,27.70
2022-08-25T10:24:13.181Z,27.80
2022-08-25T10:27:01.331Z,27.90
2022-08-25T10:29:48.158Z,27.90
2022-08-25T10:32:21.419Z,28.00
2022-08-25T10:34:53.270Z,28.00
2022-08-25T10:37:47.242Z,27.90
2022-08-25T10:40:21.927Z,28.00
2022-08-25T10:42:51.574Z,28.20
2022-08-25T10:45:42.900Z,28.30
2022-08-25T10:48:30.524Z,28.50
2022-08-25T10:51:03.479Z,28.70
2022-08-25T10:53:53.400Z,28.70
2022-08-25T10:56:40.790Z,28.80
2022-08-25T10:59:15.781Z,28.70
2022-08-25T11:02:07.084Z,28.80
2022-08-25T11:05:08.079Z,28.80
2022-08-25T11:07:40.107Z,28.70
2022-08-25T11:10:31.699Z,28.60
2022-08-25T11:13:02.644Z,28.60
2022-08-25T11:15:36.434Z,28.60
2022-08-25T11:18:14.046Z,28.70
2022-08-25T11:21:06.996Z,28.90
2022-08-25T11:23:44.459Z,28.90
2022-08-25T11:26:14.802Z,28.90
2022-08-25T11:29:26.075Z,28.90
2022-08-25T11:31:54.135Z,28.80
2022-08-25T11:34:22.465Z,28.60
2022-08-25T11:37:01.054Z,28.50
2022-08-25T11:39:36.951Z,28.60
2022-08-25T11:42:15.708Z,28.90
2022-08-25T11:45:02.343Z,29.10
2022-08-25T11:47:57.749Z,29.40
2022-08-25T11:50:30.177Z,29.80
2022-08-25T11:53:12.422Z,30.10
2022-08-25T11:55:48.358Z,30.40
2022-08-25T11:58:36.760Z,30.60
2022-08-25T12:01:06.122Z,30.60
2022-08-25T12:03:32.866Z,30.30
2022-08-25T12:06:18.409Z,30.30
2022-08-25T12:09:01.057Z,30.40
2022-08-25T12:11:44.091Z,30.60
2022-08-25T12:14:23.099Z,30.80
2022-08-25T12:16:56.415Z,31.10
2022-08-25T12:19:35.190Z,31.20
2022-08-25T12:22:03.683Z,31.30
2022-08-25T12:24:47.524Z,31.50
2022-08-25T12:27:24.691Z,31.80
2022-08-25T12:30:02.140Z,31.90
2022-08-25T12:32:41.230Z,32.10
2022-08-25T12:35:32.411Z,32.20
2022-08-25T12:38:13.964Z,32.40
2022-08-25T12:40:43.864Z,32.40
2022-08-25T12:43:21.417Z,32.40
2022-08-25T12:45:54.727Z,32.30
2022-08-25T12:48:27.563Z,32.00
2022-08-25T12:51:01.858Z,31.90
2022-08-25T12:53:35.300Z,31.80
2022-08-25T12:56:27.733Z,31.60
2022-08-25T12:59:15.694Z,31.40
2022-08-25T13:02:07.696Z,31.60
2022-08-25T13:04:49.404Z,31.90
2022-08-25T13:07:31.393Z,32.00
2022-08-25T13:10:35.742Z,31.80
2022-08-25T13:13:24.031Z,31.80
2022-08-25T13:16:07.221Z,32.20
2022-08-25T13:18:36.013Z,32.60
2022-08-25T13:21:14.904Z,33.00
2022-08-25T13:23:45.714Z,33.10
2022-08-25T13:26:23.365Z,33.10
2022-08-25T13:28:56.839Z,33.10
2022-08-25T13:31:28.270Z,33.10
2022-08-25T13:33:59.279Z,33.20
2022-08-25T13:36:54.264Z,33.00
2022-08-25T13:39:52.823Z,32.80
2022-08-25T13:42:16.534Z,32.80
2022-08-25T13:44:51.762Z,33.00
2022-08-25T13:47:43.699Z,33.30
2022-08-25T13:50:18.530Z,33.60
2022-08-25T13:52:55.981Z,34.00
2022-08-25T13:55:27.717Z,34.20
2022-08-25T13:57:58.118Z,34.30
2022-08-25T14:01:22.840Z,34.00
2022-08-25T14:04:01.450Z,33.60
2022-08-25T14:06:28.525Z,33.60
2022-08-25T14:08:58.386Z,33.40
2022-08-25T14:11:27.934Z,33.30
2022-08-25T14:14:01.614Z,33.10
2022-08-25T14:16:35.490Z,32.90
2022-08-25T14:19:03.650Z,32.80
2022-08-25T14:21:33.133Z,32.90
2022-08-25T14:24:01.344Z,32.70
2022-08-25T14:26:28.111Z,32.60
2022-08-25T14:28:55.398Z,32.40
2022-08-25T14:31:30.856Z,32.30
2022-08-25T14:34:09.390Z,32.20
2022-08-25T14:36:39.375Z,32.40
2022-08-25T14:39:08.720Z,32.60
2022-08-25T14:41:37.713Z,32.80
2022-08-25T14:44:05.445Z,33.00
2022-08-25T14:46:36.468Z,32.90
2022-08-25T14:49:07.573Z,32.80
2022-08-25T14:51:36.106Z,32.60
2022-08-25T14:54:07.320Z,32.40
2022-08-25T14:56:36.059Z,32.20
2022-08-25T14:59:03.478Z,32.10
2022-08-25T15:01:31.812Z,32.10
2022-08-25T15:04:07.194Z,32.30
2022-08-25T15:06:36.493Z,32.20
2022-08-25T15:09:08.129Z,32.10
2022-08-25T15:11:35.748Z,31.90
2022-08-25T15:14:06.182Z,31.90
2022-08-25T15:16:41.865Z,31.70
2022-08-25T15:19:14.379Z,31.60
2022-08-25T15:21:44.411Z,31.50
2022-08-25T15:24:12.006Z,31.40
2022-08-25T15:29:21.249Z,31.20
2022-08-25T15:31:50.249Z,31.10
2022-08-25T15:34:17.809Z,31.00
2022-08-25T15:36:46.036Z,31.00
2022-08-25T15:39:14.733Z,31.00
2022-08-25T15:41:54.453Z,31.00
2022-08-25T15:44:24.152Z,31.10
2022-08-25T15:46:53.331Z,31.40
2022-08-25T15:49:24.235Z,31.60
2022-08-25T15:51:52.937Z,31.80
2022-08-25T15:54:26.730Z,31.90
2022-08-25T15:56:54.898Z,32.00
2022-08-25T15:59:21.926Z,32.00
2022-08-25T16:01:53.285Z,32.10
2022-08-25T16:04:22.635Z,32.20
2022-08-25T16:06:51.972Z,32.30
2022-08-25T16:09:22.831Z,32.30
2022-08-25T16:11:56.811Z,32.40
2022-08-25T16:14:26.460Z,32.40
2022-08-25T16:16:58.452Z,32.50
2022-08-25T16:19:28.581Z,32.50
2022-08-25T16:21:55.466Z,32.50
2022-08-25T16:24:22.260Z,32.40
2022-08-25T16:26:50.161Z,32.40
2022-08-25T16:29:18.958Z,32.40
2022-08-25T16:31:53.535Z,32.30
2022-08-25T16:34:22.252Z,32.30
2022-08-25T16:36:52.337Z,32.20
2022-08-25T16:39:20.150Z,32.10
2022-08-25T16:41:49.431Z,32.00
2022-08-25T16:44:19.075Z,31.90
2022-08-25T16:46:49.505Z,31.80
2022-08-25T16:49:17.974Z,31.70
2022-08-25T16:51:44.829Z,31.60
2022-08-25T16:54:33.159Z,31.50
2022-08-25T16:57:00.673Z,31.40
2022-08-25T16:59:27.629Z,31.30
2022-08-25T17:01:55.568Z,31.20
2022-08-25T17:04:32.256Z,31.10
2022-08-25T17:07:01.712Z,31.10
2022-08-25T17:09:29.761Z,31.00
2022-08-25T17:11:57.365Z,30.90
2022-08-25T17:14:24.758Z,30.90
2022-08-25T17:16:54.619Z,30.80
2022-08-25T17:19:22.184Z,30.80
2022-08-25T17:21:50.975Z,30.70
2022-08-25T17:24:18.000Z,30.70
2022-08-25T17:26:47.286Z,30.60
2022-08-25T17:29:14.132Z,30.60
2022-08-25T17:31:43.953Z,30.50
2022-08-25T17:34:16.382Z,30.50
2022-08-25T17:36:44.347Z,30.30
2022-08-25T17:39:14.371Z,30.30
2022-08-25T17:41:43.007Z,30.30
2022-08-25T17:44:09.875Z,30.20
2022-08-25T17:46:38.454Z,30.20
2022-08-25T17:49:09.295Z,30.20
2022-08-25T17:51:36.255Z,30.10
2022-08-25T17:54:03.682Z,30.10
2022-08-25T17:56:31.615Z,30.10
2022-08-25T17:58:58.588Z,30.00
2022-08-25T18:01:28.374Z,30.00
2022-08-25T18:03:56.207Z,29.90
2022-08-25T18:06:23.523Z,29.90
2022-08-25T18:08:53.693Z,29.90
2022-08-25T18:11:25.531Z,29.80
2022-08-25T18:13:54.174Z,29.80
2022-08-25T18:16:22.324Z,29.70
2022-08-25T18:18:49.168Z,29.70
2022-08-25T18:21:17.941Z,29.70
2022-08-25T18:23:45.780Z,29.60
2022-08-25T18:26:14.709Z,29.50
2022-08-25T18:28:43.812Z,29.50
2022-08-25T18:31:12.289Z,29.40
2022-08-25T18:33:42.128Z,29.40
2022-08-25T18:36:09.758Z,29.30
2022-08-25T18:38:58.010Z,29.30
2022-08-25T18:41:26.335Z,29.20
2022-08-25T18:43:53.553Z,29.20
2022-08-25T18:46:22.652Z,29.10
2022-08-25T18:48:52.575Z,29.10
2022-08-25T18:51:22.958Z,29.00
2022-08-25T18:53:51.251Z,29.00
2022-08-25T18:56:22.425Z,28.90
2022-08-25T18:58:49.753Z,28.90
2022-08-25T19:01:18.361Z,28.90
2022-08-25T19:03:45.550Z,28.80
2022-08-25T19:06:12.342Z,28.80
2022-08-25T19:08:41.887Z,28.80
2022-08-25T19:11:09.912Z,28.70
2022-08-25T19:13:37.638Z,28.70
2022-08-25T19:16:13.839Z,28.70
2022-08-25T19:18:45.118Z,28.60
2022-08-25T19:21:12.417Z,28.60
2022-08-25T19:23:39.252Z,28.60
2022-08-25T19:26:08.796Z,28.50
2022-08-25T19:28:45.505Z,28.50
2022-08-25T19:31:12.830Z,28.50
2022-08-25T19:33:44.583Z,28.40
2022-08-25T19:36:13.378Z,28.40
2022-08-25T19:38:40.433Z,28.30
2022-08-25T19:41:10.651Z,28.30
2022-08-25T19:43:55.772Z,28.30
2022-08-25T19:46:32.067Z,28.20
2022-08-25T19:49:12.185Z,28.20
2022-08-25T19:51:44.344Z,28.10
2022-08-25T19:54:13.865Z,28.10
2022-08-25T19:56:43.506Z,28.00
2022-08-25T19:59:11.408Z,28.00
2022-08-25T20:01:39.040Z,28.00
2022-08-25T20:04:10.533Z,28.00
2022-08-25T20:06:37.726Z,27.90
2022-08-25T20:09:04.872Z,27.90
2022-08-25T20:11:33.356Z,27.90
2022-08-25T20:14:03.961Z,27.80
2022-08-25T20:16:31.122Z,27.80
2022-08-25T20:18:58.591Z,27.80
2022-08-25T20:21:25.735Z,27.70
2022-08-25T20:24:11.522Z,27.70
2022-08-25T20:26:38.769Z,27.60
2022-08-25T20:29:11.899Z,27.60
2022-08-25T20:31:39.269Z,27.50
2022-08-25T20:34:06.866Z,27.50
2022-08-25T20:36:34.234Z,27.40
2022-08-25T20:39:01.628Z,27.40
2022-08-25T20:41:28.826Z,27.40
2022-08-25T20:43:56.474Z,27.30
2022-08-25T20:46:24.040Z,27.30
2022-08-25T20:48:50.901Z,27.30
2022-08-25T20:51:21.194Z,27.20
2022-08-25T20:53:50.240Z,27.20
2022-08-25T20:56:19.171Z,27.20
2022-08-25T20:58:46.457Z,27.20
2022-08-25T21:01:23.178Z,27.10
2022-08-25T21:03:50.977Z,27.10
2022-08-25T21:06:17.815Z,27.10
2022-08-25T21:08:46.650Z,27.00
2022-08-25T21:11:17.948Z,27.00
2022-08-25T21:13:45.925Z,27.00
2022-08-25T21:16:15.205Z,26.90
2022-08-25T21:18:44.194Z,26.90
2022-08-25T21:21:16.658Z,26.90
2022-08-25T21:23:47.397Z,26.80
2022-08-25T21:26:26.429Z,26.80
2022-08-25T21:28:53.434Z,26.80
2022-08-25T21:31:21.424Z,26.80
2022-08-25T21:33:51.929Z,26.70
2022-08-25T21:36:20.025Z,26.70
2022-08-25T21:38:48.159Z,26.70
2022-08-25T21:41:22.885Z,26.60
2022-08-25T21:43:50.213Z,26.60
2022-08-25T21:46:21.179Z,26.60
2022-08-25T21:48:49.931Z,26.50
2022-08-25T21:51:20.629Z,26.50
2022-08-25T21:53:50.181Z,26.40
2022-08-25T21:56:19.801Z,26.40
2022-08-25T21:58:49.106Z,26.40
2022-08-25T22:01:20.283Z,26.40
2022-08-25T22:03:47.617Z,26.30
2022-08-25T22:06:16.226Z,26.30
2022-08-25T22:08:43.575Z,26.30
2022-08-25T22:11:10.831Z,26.30
2022-08-25T22:13:41.213Z,26.30
2022-08-25T22:16:11.859Z,26.30
2022-08-25T22:18:39.590Z,26.30
2022-08-25T22:21:09.759Z,26.30
2022-08-25T22:23:44.129Z,26.30
2022-08-25T22:26:12.436Z,26.20
2022-08-25T22:28:39.233Z,26.20
2022-08-25T22:31:10.464Z,26.20
2022-08-25T22:33:37.758Z,26.20
2022-08-25T22:36:35.068Z,26.20
2022-08-25T22:39:02.929Z,26.10
2022-08-25T22:41:31.484Z,26.10
2022-08-25T22:44:00.521Z,26.10
2022-08-25T22:46:32.455Z,26.10
2022-08-25T22:49:00.119Z,26.00
2022-08-25T22:51:31.457Z,25.90
2022-08-25T22:54:02.059Z,25.90
2022-08-25T22:56:35.897Z,25.90
2022-08-25T22:59:07.423Z,25.90
2022-08-25T23:01:35.091Z,25.90
2022-08-25T23:04:03.652Z,25.90
2022-08-25T23:06:31.409Z,25.80
2022-08-25T23:08:58.920Z,25.80
2022-08-25T23:11:26.035Z,25.80
2022-08-25T23:13:58.014Z,25.80
2022-08-25T23:16:25.242Z,25.70
2022-08-25T23:18:53.014Z,25.70
2022-08-25T23:21:41.330Z,25.70
2022-08-25T23:24:11.101Z,25.60
2022-08-25T23:26:42.006Z,25.60
2022-08-25T23:29:18.757Z,25.60
2022-08-25T23:31:47.701Z,25.50
2022-08-25T23:34:15.635Z,25.50
2022-08-25T23:36:43.630Z,25.40
2022-08-25T23:39:11.373Z,25.40
2022-08-25T23:41:38.753Z,25.40
2022-08-25T23:44:09.195Z,25.30
2022-08-25T23:46:39.363Z,25.30
2022-08-25T23:49:08.365Z,25.30
2022-08-25T23:51:38.003Z,25.30
2022-08-25T23:54:09.515Z,25.30
2022-08-25T23:56:42.281Z,25.30
2022-08-25T23:59:13.012Z,25.20
